sensor_id;sensor_type;location;lat;lon;timestamp;temperature;humidity
13052;DHT22;6592;47.484;9.726;2024-03-02T00:01:53;6.40;99.90
13052;DHT22;6592;47.484;9.726;2024-03-02T00:04:21;6.40;99.90
13052;DHT22;6592;47.484;9.726;2024-03-02T00:06:51;6.40;99.90
13052;DHT22;6592;47.484;9.726;2024-03-02T00:09:21;6.40;99.90
13052;DHT22;6592;47.484;9.726;2024-03-02T00:11:50;6.40;99.90
13052;DHT22;6592;47.484;9.726;2024-03-02T00:14:20;6.40;99.90
13052;DHT22;6592;47.484;9.726;2024-03-02T00:16:48;6.40;99.90
13052;DHT22;6592;47.484;9.726;2024-03-02T00:19:16;6.50;99.90
13052;DHT22;6592;47.484;9.726;2024-03-02T00:21:45;6.50;99.90
13052;DHT22;6592;47.484;9.726;2024-03-02T00:24:20;6.50;99.90
13052;DHT22;6592;47.484;9.726;2024-03-02T00:26:49;6.50;99.90
13052;DHT22;6592;47.484;9.726;2024-03-02T00:29:17;6.40;99.90
13052;DHT22;6592;47.484;9.726;2024-03-02T00:31:49;6.50;99.90
13052;DHT22;6592;47.484;9.726;2024-03-02T00:34:17;6.50;99.90
13052;DHT22;6592;47.484;9.726;2024-03-02T00:36:46;6.50;99.90
13052;DHT22;6592;47.484;9.726;2024-03-02T00:39:15;6.50;99.90
13052;DHT22;6592;47.484;9.726;2024-03-02T00:41:45;6.50;99.90
13052;DHT22;6592;47.484;9.726;2024-03-02T00:44:13;6.50;99.90
13052;DHT22;6592;47.484;9.726;2024-03-02T00:46:43;6.40;99.90
13052;DHT22;6592;47.484;9.726;2024-03-02T00:49:20;6.50;99.90
13052;DHT22;6592;47.484;9.726;2024-03-02T00:51:50;6.40;99.90
13052;DHT22;6592;47.484;9.726;2024-03-02T00:54:20;6.40;99.90
13052;DHT22;6592;47.484;9.726;2024-03-02T00:56:51;6.40;99.90
13052;DHT22;6592;47.484;9.726;2024-03-02T00:59:19;6.40;99.90
13052;DHT22;6592;47.484;9.726;2024-03-02T01:01:48;6.40;99.90
13052;DHT22;6592;47.484;9.726;2024-03-02T01:04:17;6.50;99.90
13052;DHT22;6592;47.484;9.726;2024-03-02T01:06:46;6.50;99.90
13052;DHT22;6592;47.484;9.726;2024-03-02T01:09:15;6.50;99.90
13052;DHT22;6592;47.484;9.726;2024-03-02T01:11:45;6.50;99.90
13052;DHT22;6592;47.484;9.726;2024-03-02T01:14:13;6.60;99.90
13052;DHT22;6592;47.484;9.726;2024-03-02T01:16:41;6.60;99.90
13052;DHT22;6592;47.484;9.726;2024-03-02T01:19:10;6.60;99.90
13052;DHT22;6592;47.484;9.726;2024-03-02T01:21:39;6.60;99.90
13052;DHT22;6592;47.484;9.726;2024-03-02T01:24:08;6.60;99.90
13052;DHT22;6592;47.484;9.726;2024-03-02T01:26:36;6.60;99.90
13052;DHT22;6592;47.484;9.726;2024-03-02T01:29:04;6.60;99.90
13052;DHT22;6592;47.484;9.726;2024-03-02T01:31:33;6.50;99.90
13052;DHT22;6592;47.484;9.726;2024-03-02T01:34:01;6.50;99.90
13052;DHT22;6592;47.484;9.726;2024-03-02T01:36:29;6.50;99.90
13052;DHT22;6592;47.484;9.726;2024-03-02T01:38:59;6.50;99.90
13052;DHT22;6592;47.484;9.726;2024-03-02T01:41:28;6.50;99.90
13052;DHT22;6592;47.484;9.726;2024-03-02T01:43:56;6.50;99.90
13052;DHT22;6592;47.484;9.726;2024-03-02T01:46:24;6.60;99.90
13052;DHT22;6592;47.484;9.726;2024-03-02T01:48:52;6.80;99.90
13052;DHT22;6592;47.484;9.726;2024-03-02T01:51:21;6.80;99.90
13052;DHT22;6592;47.484;9.726;2024-03-02T01:53:49;6.70;99.90
13052;DHT22;6592;47.484;9.726;2024-03-02T01:56:19;6.70;99.90
13052;DHT22;6592;47.484;9.726;2024-03-02T01:58:47;6.70;99.90
13052;DHT22;6592;47.484;9.726;2024-03-02T02:01:15;6.60;99.90
13052;DHT22;6592;47.484;9.726;2024-03-02T02:03:44;6.50;99.90
13052;DHT22;6592;47.484;9.726;2024-03-02T02:06:12;6.60;99.90
13052;DHT22;6592;47.484;9.726;2024-03-02T02:08:41;6.60;99.90
13052;DHT22;6592;47.484;9.726;2024-03-02T02:11:09;6.70;99.90
13052;DHT22;6592;47.484;9.726;2024-03-02T02:13:39;6.70;99.90
13052;DHT22;6592;47.484;9.726;2024-03-02T02:16:08;6.80;99.90
13052;DHT22;6592;47.484;9.726;2024-03-02T02:18:36;6.80;99.90
13052;DHT22;6592;47.484;9.726;2024-03-02T02:21:05;6.80;99.90
13052;DHT22;6592;47.484;9.726;2024-03-02T02:23:34;6.90;99.90
13052;DHT22;6592;47.484;9.726;2024-03-02T02:26:03;6.90;99.90
13052;DHT22;6592;47.484;9.726;2024-03-02T02:28:31;6.90;99.90
13052;DHT22;6592;47.484;9.726;2024-03-02T02:31:00;6.90;99.90
13052;DHT22;6592;47.484;9.726;2024-03-02T02:33:28;6.90;99.90
13052;DHT22;6592;47.484;9.726;2024-03-02T02:35:56;6.90;99.90
13052;DHT22;6592;47.484;9.726;2024-03-02T02:38:25;6.90;99.90
13052;DHT22;6592;47.484;9.726;2024-03-02T02:40:54;6.90;99.90
13052;DHT22;6592;47.484;9.726;2024-03-02T02:43:23;6.90;99.90
13052;DHT22;6592;47.484;9.726;2024-03-02T02:45:51;6.90;99.90
13052;DHT22;6592;47.484;9.726;2024-03-02T02:48:19;6.80;99.90
13052;DHT22;6592;47.484;9.726;2024-03-02T02:50:48;6.90;99.90
13052;DHT22;6592;47.484;9.726;2024-03-02T02:53:16;6.90;99.90
13052;DHT22;6592;47.484;9.726;2024-03-02T02:55:44;6.90;99.90
13052;DHT22;6592;47.484;9.726;2024-03-02T02:58:14;7.00;99.90
13052;DHT22;6592;47.484;9.726;2024-03-02T03:00:42;7.00;99.90
13052;DHT22;6592;47.484;9.726;2024-03-02T03:03:11;7.00;99.90
13052;DHT22;6592;47.484;9.726;2024-03-02T03:05:39;7.00;99.90
13052;DHT22;6592;47.484;9.726;2024-03-02T03:08:07;7.00;99.90
13052;DHT22;6592;47.484;9.726;2024-03-02T03:10:35;7.00;99.90
13052;DHT22;6592;47.484;9.726;2024-03-02T03:13:04;7.00;99.90
13052;DHT22;6592;47.484;9.726;2024-03-02T03:15:36;7.00;99.90
13052;DHT22;6592;47.484;9.726;2024-03-02T03:18:05;7.00;99.90
13052;DHT22;6592;47.484;9.726;2024-03-02T03:20:34;7.00;99.90
13052;DHT22;6592;47.484;9.726;2024-03-02T03:23:03;7.00;99.90
13052;DHT22;6592;47.484;9.726;2024-03-02T03:25:31;6.90;99.90
13052;DHT22;6592;47.484;9.726;2024-03-02T03:28:00;6.90;99.90
13052;DHT22;6592;47.484;9.726;2024-03-02T03:30:30;6.90;99.90
13052;DHT22;6592;47.484;9.726;2024-03-02T03:33:00;6.80;99.90
13052;DHT22;6592;47.484;9.726;2024-03-02T03:35:28;6.80;99.90
13052;DHT22;6592;47.484;9.726;2024-03-02T03:37:56;6.80;99.90
13052;DHT22;6592;47.484;9.726;2024-03-02T03:40:24;6.70;99.90
13052;DHT22;6592;47.484;9.726;2024-03-02T03:42:53;6.70;99.90
13052;DHT22;6592;47.484;9.726;2024-03-02T03:45:23;6.60;99.90
13052;DHT22;6592;47.484;9.726;2024-03-02T03:47:53;6.60;99.90
13052;DHT22;6592;47.484;9.726;2024-03-02T03:50:23;6.60;99.90
13052;DHT22;6592;47.484;9.726;2024-03-02T03:52:51;6.60;99.90
13052;DHT22;6592;47.484;9.726;2024-03-02T03:55:19;6.60;99.90
13052;DHT22;6592;47.484;9.726;2024-03-02T03:57:47;6.70;99.90
13052;DHT22;6592;47.484;9.726;2024-03-02T04:00:16;6.60;99.90
13052;DHT22;6592;47.484;9.726;2024-03-02T04:02:44;6.60;99.90
13052;DHT22;6592;47.484;9.726;2024-03-02T04:05:12;6.60;99.90
13052;DHT22;6592;47.484;9.726;2024-03-02T04:07:42;6.60;99.90
13052;DHT22;6592;47.484;9.726;2024-03-02T04:10:10;6.50;99.90
13052;DHT22;6592;47.484;9.726;2024-03-02T04:12:39;6.60;99.90
13052;DHT22;6592;47.484;9.726;2024-03-02T04:15:08;6.50;99.90
13052;DHT22;6592;47.484;9.726;2024-03-02T04:17:36;6.50;99.90
13052;DHT22;6592;47.484;9.726;2024-03-02T04:20:05;6.50;99.90
13052;DHT22;6592;47.484;9.726;2024-03-02T04:22:34;6.40;99.90
13052;DHT22;6592;47.484;9.726;2024-03-02T04:25:05;6.40;99.90
13052;DHT22;6592;47.484;9.726;2024-03-02T04:27:34;6.40;99.90
13052;DHT22;6592;47.484;9.726;2024-03-02T04:30:04;6.40;99.90
13052;DHT22;6592;47.484;9.726;2024-03-02T04:32:33;6.40;99.90
13052;DHT22;6592;47.484;9.726;2024-03-02T04:35:03;6.40;99.90
13052;DHT22;6592;47.484;9.726;2024-03-02T04:37:34;6.30;99.90
13052;DHT22;6592;47.484;9.726;2024-03-02T04:40:04;6.30;99.90
13052;DHT22;6592;47.484;9.726;2024-03-02T04:42:35;6.20;99.90
13052;DHT22;6592;47.484;9.726;2024-03-02T04:45:04;6.20;99.90
13052;DHT22;6592;47.484;9.726;2024-03-02T04:47:32;6.20;99.90
13052;DHT22;6592;47.484;9.726;2024-03-02T04:50:00;6.20;99.90
13052;DHT22;6592;47.484;9.726;2024-03-02T04:52:29;6.30;99.90
13052;DHT22;6592;47.484;9.726;2024-03-02T04:54:57;6.30;99.90
13052;DHT22;6592;47.484;9.726;2024-03-02T04:57:48;6.20;99.90
13052;DHT22;6592;47.484;9.726;2024-03-02T05:00:18;6.20;99.90
13052;DHT22;6592;47.484;9.726;2024-03-02T05:02:46;6.20;99.90
13052;DHT22;6592;47.484;9.726;2024-03-02T05:05:14;6.20;99.90
13052;DHT22;6592;47.484;9.726;2024-03-02T05:07:43;6.20;99.90
13052;DHT22;6592;47.484;9.726;2024-03-02T05:10:11;6.20;99.90
13052;DHT22;6592;47.484;9.726;2024-03-02T05:12:39;6.20;99.90
13052;DHT22;6592;47.484;9.726;2024-03-02T05:15:26;6.20;99.90
13052;DHT22;6592;47.484;9.726;2024-03-02T05:17:54;6.20;99.90
13052;DHT22;6592;47.484;9.726;2024-03-02T05:20:24;6.20;99.90
13052;DHT22;6592;47.484;9.726;2024-03-02T05:22:52;6.10;99.90
13052;DHT22;6592;47.484;9.726;2024-03-02T05:25:20;6.10;99.90
13052;DHT22;6592;47.484;9.726;2024-03-02T05:27:49;6.20;99.90
13052;DHT22;6592;47.484;9.726;2024-03-02T05:30:17;6.20;99.90
13052;DHT22;6592;47.484;9.726;2024-03-02T05:32:46;6.20;99.90
13052;DHT22;6592;47.484;9.726;2024-03-02T05:35:15;6.20;99.90
13052;DHT22;6592;47.484;9.726;2024-03-02T05:37:43;6.30;99.90
13052;DHT22;6592;47.484;9.726;2024-03-02T05:40:11;6.30;99.90
13052;DHT22;6592;47.484;9.726;2024-03-02T05:42:40;6.30;99.90
13052;DHT22;6592;47.484;9.726;2024-03-02T05:45:09;6.20;99.90
13052;DHT22;6592;47.484;9.726;2024-03-02T05:47:37;6.30;99.90
13052;DHT22;6592;47.484;9.726;2024-03-02T05:50:08;6.30;99.90
13052;DHT22;6592;47.484;9.726;2024-03-02T05:52:36;6.30;99.90
13052;DHT22;6592;47.484;9.726;2024-03-02T05:55:06;6.30;99.90
13052;DHT22;6592;47.484;9.726;2024-03-02T05:57:34;6.30;99.90
13052;DHT22;6592;47.484;9.726;2024-03-02T06:00:17;6.30;99.90
13052;DHT22;6592;47.484;9.726;2024-03-02T06:02:45;6.30;99.90
13052;DHT22;6592;47.484;9.726;2024-03-02T06:05:15;6.30;99.90
13052;DHT22;6592;47.484;9.726;2024-03-02T06:07:44;6.20;99.90
13052;DHT22;6592;47.484;9.726;2024-03-02T06:10:12;6.20;99.90
13052;DHT22;6592;47.484;9.726;2024-03-02T06:12:41;6.20;99.90
13052;DHT22;6592;47.484;9.726;2024-03-02T06:15:10;6.20;99.90
13052;DHT22;6592;47.484;9.726;2024-03-02T06:17:38;6.20;99.90
13052;DHT22;6592;47.484;9.726;2024-03-02T06:20:07;6.20;99.90
13052;DHT22;6592;47.484;9.726;2024-03-02T06:22:37;6.20;99.90
13052;DHT22;6592;47.484;9.726;2024-03-02T06:25:06;6.20;99.90
13052;DHT22;6592;47.484;9.726;2024-03-02T06:27:35;6.30;99.90
13052;DHT22;6592;47.484;9.726;2024-03-02T06:30:04;6.30;99.90
13052;DHT22;6592;47.484;9.726;2024-03-02T06:32:33;6.30;99.90
13052;DHT22;6592;47.484;9.726;2024-03-02T06:35:02;6.30;99.90
13052;DHT22;6592;47.484;9.726;2024-03-02T06:37:31;6.30;99.90
13052;DHT22;6592;47.484;9.726;2024-03-02T06:40:01;6.30;99.90
13052;DHT22;6592;47.484;9.726;2024-03-02T06:42:29;6.40;99.90
13052;DHT22;6592;47.484;9.726;2024-03-02T06:45:01;6.40;99.90
13052;DHT22;6592;47.484;9.726;2024-03-02T06:47:29;6.40;99.90
13052;DHT22;6592;47.484;9.726;2024-03-02T06:49:58;6.30;99.90
13052;DHT22;6592;47.484;9.726;2024-03-02T06:52:26;6.30;99.90
13052;DHT22;6592;47.484;9.726;2024-03-02T06:54:55;6.40;99.90
13052;DHT22;6592;47.484;9.726;2024-03-02T06:57:24;6.40;99.90
13052;DHT22;6592;47.484;9.726;2024-03-02T06:59:53;6.40;99.90
13052;DHT22;6592;47.484;9.726;2024-03-02T07:02:25;6.40;99.90
13052;DHT22;6592;47.484;9.726;2024-03-02T07:04:53;6.40;99.90
13052;DHT22;6592;47.484;9.726;2024-03-02T07:07:23;6.30;99.90
13052;DHT22;6592;47.484;9.726;2024-03-02T07:09:51;6.30;99.90
13052;DHT22;6592;47.484;9.726;2024-03-02T07:12:20;6.30;99.90
13052;DHT22;6592;47.484;9.726;2024-03-02T07:14:49;6.30;99.90
13052;DHT22;6592;47.484;9.726;2024-03-02T07:17:38;6.40;99.90
13052;DHT22;6592;47.484;9.726;2024-03-02T07:20:06;6.40;99.90
13052;DHT22;6592;47.484;9.726;2024-03-02T07:22:34;6.40;99.90
13052;DHT22;6592;47.484;9.726;2024-03-02T07:25:08;6.50;99.90
13052;DHT22;6592;47.484;9.726;2024-03-02T07:27:56;6.50;99.90
13052;DHT22;6592;47.484;9.726;2024-03-02T07:30:26;6.60;99.90
13052;DHT22;6592;47.484;9.726;2024-03-02T07:32:57;6.60;99.90
13052;DHT22;6592;47.484;9.726;2024-03-02T07:35:25;6.70;99.90
13052;DHT22;6592;47.484;9.726;2024-03-02T07:37:54;6.80;99.90
13052;DHT22;6592;47.484;9.726;2024-03-02T07:40:23;6.90;99.90
13052;DHT22;6592;47.484;9.726;2024-03-02T07:42:52;6.90;99.90
13052;DHT22;6592;47.484;9.726;2024-03-02T07:45:20;7.00;99.90
13052;DHT22;6592;47.484;9.726;2024-03-02T07:47:50;7.00;99.90
13052;DHT22;6592;47.484;9.726;2024-03-02T07:50:18;7.10;99.90
13052;DHT22;6592;47.484;9.726;2024-03-02T07:52:47;7.20;99.90
13052;DHT22;6592;47.484;9.726;2024-03-02T07:55:15;7.20;99.90
13052;DHT22;6592;47.484;9.726;2024-03-02T07:57:43;7.30;99.90
13052;DHT22;6592;47.484;9.726;2024-03-02T08:00:12;7.40;99.90
13052;DHT22;6592;47.484;9.726;2024-03-02T08:02:42;7.50;99.90
13052;DHT22;6592;47.484;9.726;2024-03-02T08:05:12;7.60;99.90
13052;DHT22;6592;47.484;9.726;2024-03-02T08:07:40;7.80;99.90
13052;DHT22;6592;47.484;9.726;2024-03-02T08:10:09;8.10;99.90
13052;DHT22;6592;47.484;9.726;2024-03-02T08:12:37;8.20;99.90
13052;DHT22;6592;47.484;9.726;2024-03-02T08:15:06;8.30;99.90
13052;DHT22;6592;47.484;9.726;2024-03-02T08:17:35;8.40;99.90
13052;DHT22;6592;47.484;9.726;2024-03-02T08:20:05;8.60;99.90
13052;DHT22;6592;47.484;9.726;2024-03-02T08:22:36;8.70;99.90
13052;DHT22;6592;47.484;9.726;2024-03-02T08:25:05;8.70;99.90
13052;DHT22;6592;47.484;9.726;2024-03-02T08:27:33;8.80;99.90
13052;DHT22;6592;47.484;9.726;2024-03-02T08:30:02;8.80;99.90
13052;DHT22;6592;47.484;9.726;2024-03-02T08:32:34;8.80;99.90
13052;DHT22;6592;47.484;9.726;2024-03-02T08:35:03;8.80;99.90
13052;DHT22;6592;47.484;9.726;2024-03-02T08:37:32;9.00;99.90
13052;DHT22;6592;47.484;9.726;2024-03-02T08:40:02;9.20;99.90
13052;DHT22;6592;47.484;9.726;2024-03-02T08:42:34;9.40;99.90
13052;DHT22;6592;47.484;9.726;2024-03-02T08:45:03;9.50;99.90
13052;DHT22;6592;47.484;9.726;2024-03-02T08:47:31;9.40;99.90
13052;DHT22;6592;47.484;9.726;2024-03-02T08:49:59;9.40;99.90
13052;DHT22;6592;47.484;9.726;2024-03-02T08:52:28;9.50;99.90
13052;DHT22;6592;47.484;9.726;2024-03-02T08:54:56;9.40;99.90
13052;DHT22;6592;47.484;9.726;2024-03-02T08:57:26;9.40;99.90
13052;DHT22;6592;47.484;9.726;2024-03-02T08:59:54;9.40;99.90
13052;DHT22;6592;47.484;9.726;2024-03-02T09:02:23;9.50;99.90
13052;DHT22;6592;47.484;9.726;2024-03-02T09:04:52;9.60;99.90
13052;DHT22;6592;47.484;9.726;2024-03-02T09:07:20;9.50;99.90
13052;DHT22;6592;47.484;9.726;2024-03-02T09:09:48;9.80;99.90
13052;DHT22;6592;47.484;9.726;2024-03-02T09:12:17;9.90;99.90
13052;DHT22;6592;47.484;9.726;2024-03-02T09:14:46;10.10;99.90
13052;DHT22;6592;47.484;9.726;2024-03-02T09:17:15;10.40;99.90
13052;DHT22;6592;47.484;9.726;2024-03-02T09:19:43;11.10;99.90
13052;DHT22;6592;47.484;9.726;2024-03-02T09:22:11;11.50;99.90
13052;DHT22;6592;47.484;9.726;2024-03-02T09:24:40;11.90;99.90
13052;DHT22;6592;47.484;9.726;2024-03-02T09:27:08;12.60;99.90
13052;DHT22;6592;47.484;9.726;2024-03-02T09:29:37;13.20;99.90
13052;DHT22;6592;47.484;9.726;2024-03-02T09:32:08;13.20;99.90
13052;DHT22;6592;47.484;9.726;2024-03-02T09:34:36;13.40;99.90
13052;DHT22;6592;47.484;9.726;2024-03-02T09:37:05;13.90;99.90
13052;DHT22;6592;47.484;9.726;2024-03-02T09:39:33;14.20;99.90
13052;DHT22;6592;47.484;9.726;2024-03-02T09:42:02;14.70;99.90
13052;DHT22;6592;47.484;9.726;2024-03-02T09:44:31;15.10;99.90
13052;DHT22;6592;47.484;9.726;2024-03-02T09:47:01;15.70;99.90
13052;DHT22;6592;47.484;9.726;2024-03-02T09:49:30;16.90;99.90
13052;DHT22;6592;47.484;9.726;2024-03-02T09:51:59;17.70;99.90
13052;DHT22;6592;47.484;9.726;2024-03-02T09:54:27;17.80;99.90
13052;DHT22;6592;47.484;9.726;2024-03-02T09:56:57;18.00;99.90
13052;DHT22;6592;47.484;9.726;2024-03-02T09:59:25;17.90;99.90
13052;DHT22;6592;47.484;9.726;2024-03-02T10:01:58;17.80;99.90
13052;DHT22;6592;47.484;9.726;2024-03-02T10:04:28;17.70;99.90
13052;DHT22;6592;47.484;9.726;2024-03-02T10:07:11;17.90;99.90
13052;DHT22;6592;47.484;9.726;2024-03-02T10:09:41;18.30;99.90
13052;DHT22;6592;47.484;9.726;2024-03-02T10:12:10;18.30;99.90
13052;DHT22;6592;47.484;9.726;2024-03-02T10:14:40;18.50;99.90
13052;DHT22;6592;47.484;9.726;2024-03-02T10:17:09;18.80;99.90
13052;DHT22;6592;47.484;9.726;2024-03-02T10:19:39;19.00;99.90
13052;DHT22;6592;47.484;9.726;2024-03-02T10:22:08;19.50;99.90
13052;DHT22;6592;47.484;9.726;2024-03-02T10:24:40;19.80;99.90
13052;DHT22;6592;47.484;9.726;2024-03-02T10:27:10;19.50;99.90
13052;DHT22;6592;47.484;9.726;2024-03-02T10:29:39;18.80;99.90
13052;DHT22;6592;47.484;9.726;2024-03-02T10:32:11;18.10;99.90
13052;DHT22;6592;47.484;9.726;2024-03-02T10:34:40;17.80;99.90
13052;DHT22;6592;47.484;9.726;2024-03-02T10:37:10;18.50;99.90
13052;DHT22;6592;47.484;9.726;2024-03-02T10:39:44;17.70;99.90
13052;DHT22;6592;47.484;9.726;2024-03-02T10:42:14;16.70;99.90
13052;DHT22;6592;47.484;9.726;2024-03-02T10:44:43;16.30;99.90
13052;DHT22;6592;47.484;9.726;2024-03-02T10:47:12;16.70;99.90
13052;DHT22;6592;47.484;9.726;2024-03-02T10:49:42;17.00;99.90
13052;DHT22;6592;47.484;9.726;2024-03-02T10:52:11;16.50;99.90
13052;DHT22;6592;47.484;9.726;2024-03-02T10:54:41;16.20;99.90
13052;DHT22;6592;47.484;9.726;2024-03-02T10:57:11;15.50;99.90
13052;DHT22;6592;47.484;9.726;2024-03-02T10:59:49;15.00;99.90
13052;DHT22;6592;47.484;9.726;2024-03-02T11:02:21;15.00;99.90
13052;DHT22;6592;47.484;9.726;2024-03-02T11:04:53;15.20;99.90
13052;DHT22;6592;47.484;9.726;2024-03-02T11:07:23;14.80;99.90
13052;DHT22;6592;47.484;9.726;2024-03-02T11:09:57;14.60;99.90
13052;DHT22;6592;47.484;9.726;2024-03-02T11:12:29;14.30;99.90
13052;DHT22;6592;47.484;9.726;2024-03-02T11:15:00;14.10;99.90
13052;DHT22;6592;47.484;9.726;2024-03-02T11:17:31;14.00;99.90
13052;DHT22;6592;47.484;9.726;2024-03-02T11:20:00;13.90;99.90
13052;DHT22;6592;47.484;9.726;2024-03-02T11:22:29;13.70;99.90
13052;DHT22;6592;47.484;9.726;2024-03-02T11:24:58;13.60;99.90
13052;DHT22;6592;47.484;9.726;2024-03-02T11:28:04;13.20;99.90
13052;DHT22;6592;47.484;9.726;2024-03-02T11:30:49;13.10;99.90
13052;DHT22;6592;47.484;9.726;2024-03-02T11:33:25;12.90;99.90
13052;DHT22;6592;47.484;9.726;2024-03-02T11:35:57;12.90;99.90
13052;DHT22;6592;47.484;9.726;2024-03-02T11:38:32;12.90;99.90
13052;DHT22;6592;47.484;9.726;2024-03-02T11:41:05;13.00;99.90
13052;DHT22;6592;47.484;9.726;2024-03-02T11:43:37;13.40;99.90
13052;DHT22;6592;47.484;9.726;2024-03-02T11:46:07;13.60;99.90
13052;DHT22;6592;47.484;9.726;2024-03-02T11:48:36;13.90;99.90
13052;DHT22;6592;47.484;9.726;2024-03-02T11:51:05;14.00;99.90
13052;DHT22;6592;47.484;9.726;2024-03-02T11:53:33;14.10;99.90
13052;DHT22;6592;47.484;9.726;2024-03-02T11:56:06;14.20;99.90
13052;DHT22;6592;47.484;9.726;2024-03-02T11:58:39;14.60;99.90
13052;DHT22;6592;47.484;9.726;2024-03-02T12:01:10;15.00;99.90
13052;DHT22;6592;47.484;9.726;2024-03-02T12:03:40;15.60;99.90
13052;DHT22;6592;47.484;9.726;2024-03-02T12:06:08;15.90;99.90
13052;DHT22;6592;47.484;9.726;2024-03-02T12:08:37;16.30;99.90
13052;DHT22;6592;47.484;9.726;2024-03-02T12:11:07;16.70;99.90
13052;DHT22;6592;47.484;9.726;2024-03-02T12:13:35;17.40;99.90
13052;DHT22;6592;47.484;9.726;2024-03-02T12:16:04;18.00;99.90
13052;DHT22;6592;47.484;9.726;2024-03-02T12:18:33;18.50;99.90
13052;DHT22;6592;47.484;9.726;2024-03-02T12:21:01;18.80;99.90
13052;DHT22;6592;47.484;9.726;2024-03-02T12:23:31;18.80;99.90
13052;DHT22;6592;47.484;9.726;2024-03-02T12:25:59;18.90;99.90
13052;DHT22;6592;47.484;9.726;2024-03-02T12:28:29;18.90;99.90
13052;DHT22;6592;47.484;9.726;2024-03-02T12:30:59;19.50;99.90
13052;DHT22;6592;47.484;9.726;2024-03-02T12:33:27;20.20;99.90
13052;DHT22;6592;47.484;9.726;2024-03-02T12:35:57;20.60;99.90
13052;DHT22;6592;47.484;9.726;2024-03-02T12:38:26;21.20;99.90
13052;DHT22;6592;47.484;9.726;2024-03-02T12:40:56;21.70;99.90
13052;DHT22;6592;47.484;9.726;2024-03-02T12:43:24;22.20;99.90
13052;DHT22;6592;47.484;9.726;2024-03-02T12:45:58;22.80;99.90
13052;DHT22;6592;47.484;9.726;2024-03-02T12:48:27;23.20;99.90
13052;DHT22;6592;47.484;9.726;2024-03-02T12:50:55;23.00;99.90
13052;DHT22;6592;47.484;9.726;2024-03-02T12:53:24;23.00;99.90
13052;DHT22;6592;47.484;9.726;2024-03-02T12:55:52;22.90;99.90
13052;DHT22;6592;47.484;9.726;2024-03-02T12:58:23;22.70;99.90
13052;DHT22;6592;47.484;9.726;2024-03-02T13:01:07;22.90;99.90
13052;DHT22;6592;47.484;9.726;2024-03-02T13:03:37;23.40;99.90
13052;DHT22;6592;47.484;9.726;2024-03-02T13:06:06;23.90;99.90
13052;DHT22;6592;47.484;9.726;2024-03-02T13:08:34;24.40;99.90
13052;DHT22;6592;47.484;9.726;2024-03-02T13:11:03;24.70;99.90
13052;DHT22;6592;47.484;9.726;2024-03-02T13:13:34;24.60;99.90
13052;DHT22;6592;47.484;9.726;2024-03-02T13:16:02;24.60;99.90
13052;DHT22;6592;47.484;9.726;2024-03-02T13:18:33;24.90;99.90
13052;DHT22;6592;47.484;9.726;2024-03-02T13:21:02;24.60;99.90
13052;DHT22;6592;47.484;9.726;2024-03-02T13:23:30;25.00;99.90
13052;DHT22;6592;47.484;9.726;2024-03-02T13:25:58;25.30;99.90
13052;DHT22;6592;47.484;9.726;2024-03-02T13:28:27;25.40;99.90
13052;DHT22;6592;47.484;9.726;2024-03-02T13:30:55;25.70;99.90
13052;DHT22;6592;47.484;9.726;2024-03-02T13:33:25;26.30;99.90
13052;DHT22;6592;47.484;9.726;2024-03-02T13:35:54;27.00;99.90
13052;DHT22;6592;47.484;9.726;2024-03-02T13:38:22;27.70;99.90
13052;DHT22;6592;47.484;9.726;2024-03-02T13:40:51;28.00;99.90
13052;DHT22;6592;47.484;9.726;2024-03-02T13:43:19;28.60;98.70
13052;DHT22;6592;47.484;9.726;2024-03-02T13:45:47;29.00;95.10
13052;DHT22;6592;47.484;9.726;2024-03-02T13:48:16;29.50;94.90
13052;DHT22;6592;47.484;9.726;2024-03-02T13:50:44;29.80;92.20
13052;DHT22;6592;47.484;9.726;2024-03-02T13:53:14;30.20;90.80
13052;DHT22;6592;47.484;9.726;2024-03-02T13:55:42;30.70;87.90
13052;DHT22;6592;47.484;9.726;2024-03-02T13:58:11;31.20;84.20
13052;DHT22;6592;47.484;9.726;2024-03-02T14:00:39;31.60;81.50
13052;DHT22;6592;47.484;9.726;2024-03-02T14:03:08;31.80;76.90
13052;DHT22;6592;47.484;9.726;2024-03-02T14:05:36;31.80;76.90
13052;DHT22;6592;47.484;9.726;2024-03-02T14:08:05;31.60;71.30
13052;DHT22;6592;47.484;9.726;2024-03-02T14:10:34;31.50;71.50
13052;DHT22;6592;47.484;9.726;2024-03-02T14:13:03;31.60;72.00
13052;DHT22;6592;47.484;9.726;2024-03-02T14:15:32;31.80;67.90
13052;DHT22;6592;47.484;9.726;2024-03-02T14:18:00;31.40;69.70
13052;DHT22;6592;47.484;9.726;2024-03-02T14:20:28;31.40;66.70
13052;DHT22;6592;47.484;9.726;2024-03-02T14:22:56;31.50;66.70
13052;DHT22;6592;47.484;9.726;2024-03-02T14:25:26;31.60;66.40
13052;DHT22;6592;47.484;9.726;2024-03-02T14:27:58;31.60;65.00
13052;DHT22;6592;47.484;9.726;2024-03-02T14:30:47;31.40;64.50
13052;DHT22;6592;47.484;9.726;2024-03-02T14:33:17;30.90;64.70
13052;DHT22;6592;47.484;9.726;2024-03-02T14:35:46;30.40;65.50
13052;DHT22;6592;47.484;9.726;2024-03-02T14:38:14;29.80;66.10
13052;DHT22;6592;47.484;9.726;2024-03-02T14:40:42;29.00;65.40
13052;DHT22;6592;47.484;9.726;2024-03-02T14:43:12;28.40;68.20
13052;DHT22;6592;47.484;9.726;2024-03-02T14:45:40;27.90;68.80
13052;DHT22;6592;47.484;9.726;2024-03-02T14:48:08;27.60;68.80
13052;DHT22;6592;47.484;9.726;2024-03-02T14:50:37;27.30;70.00
13052;DHT22;6592;47.484;9.726;2024-03-02T14:53:05;27.10;70.50
13052;DHT22;6592;47.484;9.726;2024-03-02T14:55:34;27.10;70.00
13052;DHT22;6592;47.484;9.726;2024-03-02T14:58:03;27.00;70.30
13052;DHT22;6592;47.484;9.726;2024-03-02T15:00:33;26.80;70.60
13052;DHT22;6592;47.484;9.726;2024-03-02T15:03:01;26.70;71.20
13052;DHT22;6592;47.484;9.726;2024-03-02T15:05:32;26.40;71.40
13052;DHT22;6592;47.484;9.726;2024-03-02T15:08:00;26.20;71.90
13052;DHT22;6592;47.484;9.726;2024-03-02T15:10:31;25.90;72.60
13052;DHT22;6592;47.484;9.726;2024-03-02T15:12:59;25.60;73.70
13052;DHT22;6592;47.484;9.726;2024-03-02T15:15:28;25.30;73.90
13052;DHT22;6592;47.484;9.726;2024-03-02T15:17:58;25.00;74.50
13052;DHT22;6592;47.484;9.726;2024-03-02T15:20:28;24.60;75.30
13052;DHT22;6592;47.484;9.726;2024-03-02T15:22:56;24.20;75.80
13052;DHT22;6592;47.484;9.726;2024-03-02T15:25:24;23.70;76.70
13052;DHT22;6592;47.484;9.726;2024-03-02T15:27:53;23.20;78.10
13052;DHT22;6592;47.484;9.726;2024-03-02T15:30:21;22.70;79.70
13052;DHT22;6592;47.484;9.726;2024-03-02T15:32:49;22.30;80.40
13052;DHT22;6592;47.484;9.726;2024-03-02T15:35:19;21.90;81.40
13052;DHT22;6592;47.484;9.726;2024-03-02T15:37:48;21.60;83.20
13052;DHT22;6592;47.484;9.726;2024-03-02T15:40:16;21.20;84.40
13052;DHT22;6592;47.484;9.726;2024-03-02T15:42:44;20.80;84.50
13052;DHT22;6592;47.484;9.726;2024-03-02T15:45:13;20.40;86.20
13052;DHT22;6592;47.484;9.726;2024-03-02T15:47:42;20.10;87.00
13052;DHT22;6592;47.484;9.726;2024-03-02T15:50:10;19.70;87.80
13052;DHT22;6592;47.484;9.726;2024-03-02T15:52:41;19.40;89.10
13052;DHT22;6592;47.484;9.726;2024-03-02T15:55:12;19.10;90.10
13052;DHT22;6592;47.484;9.726;2024-03-02T15:57:40;18.90;90.70
13052;DHT22;6592;47.484;9.726;2024-03-02T16:00:09;18.70;91.30
13052;DHT22;6592;47.484;9.726;2024-03-02T16:02:38;18.50;92.00
13052;DHT22;6592;47.484;9.726;2024-03-02T16:05:07;18.30;92.60
13052;DHT22;6592;47.484;9.726;2024-03-02T16:07:35;18.10;93.20
13052;DHT22;6592;47.484;9.726;2024-03-02T16:10:06;17.90;94.00